Honolulu, HI

04:53 AM HST del 23 Maggio 2015 (GMT -1000)
Pacific Heights | | Change Station
CLOSE
Current Station
Stazione meteo personale
Location: Honolulu, HI
Altitudine: 528 ft
Stazioni meteo nelle vicinanze

Alt. 528 ft 21.33 °N, 157.84 °W | Updated 13 seconds ago

Mostly Cloudy
Molto nuvoloso
67.8 °F
Sembra 67.8 °F
N
0.9
Vento Variabile Vento da SSE
Gusts 5.0 mph

Oggi
Massima -- | Minima -- °F
--% Possibilità di precip.
Ieri
Massima -- | Minima -- °F
Precip. -- in
5:50 AM 7:05 PM
Luna crescente, 30% visible
Pressione 30.01 in
Visibilità 10.0 miglia
Nuvole Alcuni 2600 ft
Molto nuvoloso 5500 ft
Punto di rugiada 63 °F
Umidità 85%
Piovosità 0.00 in
Spessore del manto nevoso Non disponibile.
Raggi UV 0 fuori da 12
Polline Non disponibile.
Qualità dell'aria Non disponibile.
Flu Activity Local Activity
METAR PHNL 231353Z 36006KT 10SM FEW026 BKN055 22/18 A3000 RMK AO2 SLP160 T02220178

More Conditions Fewer Conditions

Pressione 30.01 in
Visibilità 10.0 miglia
Nuvole Alcuni 2600 ft
Molto nuvoloso 5500 ft
Punto di rugiada 63 °F
Umidità 85%
Piovosità 0.00 in
Spessore del manto nevoso Non disponibile.
Raggi UV 0 fuori da 12
Polline Non disponibile.
Qualità dell'aria Non disponibile.
Flu Activity Local Activity
METAR PHNL 231353Z 36006KT 10SM FEW026 BKN055 22/18 A3000 RMK AO2 SLP160 T02220178

More Conditions Fewer Conditions

10-Day Weather Forecast

Almanac

Astronomia

May. 23, 2015 Alba Tramonto
Ora attuale
Crepuscolo civile
Crepuscolo nautico
Crepuscolo astronomico
Luna
Estensione della luce visibile
Lunghezza del giorno
Tomorrow will be .
, % of the Moon is Illuminated

Gli estremi di oggi

State Highs State Lows

Community

WunderPhotos

Upload Photos

1,823,480 foto caricate!

WunderBlogs® & News

Nearby

Qualità dell'aria

  Qualità dell'aria Indice AQ Inquinante
Not available.

Profondità neve

Stazione Profondità Altitudine

Attività sismica

Città  Distanza Mag. Data & Ora
Minimo Magnitudo Mostrato è 2.5.

Temperature delle acque costiere

Località Temperatura

Stations

Stazioni meteo nelle vicinanze

Ubicazione della stazione Temp. Raffreddamento del vento Punto di rugiada Umidità Vento Precip. Alt. Aggiornato Tipo